createdAt,value
2023-01-20T00:01:40.403Z,3.67
2023-01-20T00:04:07.351Z,3.68
2023-01-20T00:06:34.168Z,3.68
2023-01-20T00:09:03.240Z,3.69
2023-01-20T00:11:30.421Z,3.69
2023-01-20T00:14:02.508Z,3.69
2023-01-20T00:16:31.760Z,3.72
2023-01-20T00:18:58.908Z,3.73
2023-01-20T00:21:25.727Z,3.74
2023-01-20T00:23:52.549Z,3.75
2023-01-20T00:26:22.493Z,3.74
2023-01-20T00:28:50.332Z,3.77
2023-01-20T00:31:26.476Z,3.76
2023-01-20T00:33:56.714Z,3.77
2023-01-20T00:36:25.076Z,3.74
2023-01-20T00:38:52.032Z,3.76
2023-01-20T00:41:19.924Z,3.76
2023-01-20T00:43:46.771Z,3.78
2023-01-20T00:46:14.432Z,3.79
2023-01-20T00:48:41.856Z,3.80
2023-01-20T00:51:10.303Z,3.83
2023-01-20T00:53:37.245Z,3.86
2023-01-20T00:56:04.877Z,3.88
2023-01-20T00:58:31.724Z,3.89
2023-01-20T01:00:58.866Z,3.90
2023-01-20T01:03:27.925Z,3.90
2023-01-20T01:05:54.870Z,3.88
2023-01-20T01:08:21.681Z,3.84
2023-01-20T01:10:48.437Z,3.82
2023-01-20T01:13:15.197Z,3.80
2023-01-20T01:15:49.513Z,3.79
2023-01-20T01:18:16.906Z,3.80
2023-01-20T01:20:44.711Z,3.82
2023-01-20T01:23:12.496Z,3.83
2023-01-20T01:25:39.315Z,3.83
2023-01-20T01:28:06.212Z,3.87
2023-01-20T01:30:33.345Z,3.86
2023-01-20T01:33:00.195Z,3.87
2023-01-20T01:35:27.153Z,3.88
2023-01-20T01:37:53.956Z,3.87
2023-01-20T01:40:20.717Z,3.86
2023-01-20T01:42:47.489Z,3.85
2023-01-20T01:45:14.611Z,3.83
2023-01-20T01:48:06.675Z,3.80
2023-01-20T01:50:43.267Z,3.76
2023-01-20T01:53:10.967Z,3.76
2023-01-20T01:55:44.107Z,3.72
2023-01-20T01:58:15.014Z,3.71
2023-01-20T02:00:43.713Z,3.72
2023-01-20T02:03:11.748Z,3.71
2023-01-20T02:05:39.630Z,3.71
2023-01-20T02:08:08.271Z,3.69
2023-01-20T02:10:35.117Z,3.67
2023-01-20T02:13:02.439Z,3.67
2023-01-20T02:15:41.674Z,3.63
2023-01-20T02:18:31.724Z,3.61
2023-01-20T02:21:14.170Z,3.60
2023-01-20T02:24:34.717Z,3.57
2023-01-20T02:27:52.396Z,3.52
2023-01-20T02:30:48.906Z,3.47
2023-01-20T02:33:36.756Z,3.44
2023-01-20T02:36:10.640Z,3.42
2023-01-20T02:38:56.562Z,3.39
2023-01-20T02:41:23.205Z,3.38
2023-01-20T02:44:29.877Z,3.32
2023-01-20T02:47:17.285Z,3.29
2023-01-20T02:49:59.160Z,3.25
2023-01-20T02:52:30.215Z,3.23
2023-01-20T02:55:04.492Z,3.21
2023-01-20T02:57:46.642Z,3.17
2023-01-20T03:00:23.160Z,3.14
2023-01-20T03:02:53.509Z,3.10
2023-01-20T03:05:30.010Z,3.04
2023-01-20T03:07:59.363Z,3.01
2023-01-20T03:10:30.534Z,2.95
2023-01-20T03:13:21.202Z,2.87
2023-01-20T03:15:58.619Z,2.82
2023-01-20T03:18:28.530Z,2.79
2023-01-20T03:20:57.449Z,2.75
2023-01-20T03:23:26.543Z,2.73
2023-01-20T03:25:55.103Z,2.71
2023-01-20T03:28:21.916Z,2.72
2023-01-20T03:30:49.039Z,2.73
2023-01-20T03:33:17.774Z,2.71
2023-01-20T03:35:44.819Z,2.72
2023-01-20T03:38:11.977Z,2.71
2023-01-20T03:40:48.692Z,2.66
2023-01-20T03:43:45.447Z,2.60
2023-01-20T03:46:33.391Z,2.56
2023-01-20T03:49:35.458Z,2.48
2023-01-20T03:52:46.624Z,2.44
2023-01-20T03:55:21.078Z,2.44
2023-01-20T03:58:03.417Z,2.44
2023-01-20T04:00:34.237Z,2.47
2023-01-20T04:03:07.806Z,2.49
2023-01-20T04:05:36.058Z,2.54
2023-01-20T04:08:07.360Z,2.55
2023-01-20T04:10:36.844Z,2.60
2023-01-20T04:13:03.751Z,2.65
2023-01-20T04:15:40.164Z,2.68
2023-01-20T04:18:22.145Z,2.71
2023-01-20T04:20:53.655Z,2.77
2023-01-20T04:23:32.437Z,2.81
2023-01-20T04:25:59.239Z,2.88
2023-01-20T04:28:26.141Z,2.91
2023-01-20T04:30:53.100Z,2.95
2023-01-20T04:33:20.011Z,2.98
2023-01-20T04:35:46.771Z,3.02
2023-01-20T04:38:13.535Z,3.05
2023-01-20T04:40:40.366Z,3.07
2023-01-20T04:43:07.158Z,3.10
2023-01-20T04:45:34.450Z,3.11
2023-01-20T04:48:01.210Z,3.13
2023-01-20T04:50:27.981Z,3.14
2023-01-20T04:52:55.914Z,3.13
2023-01-20T04:55:22.766Z,3.14
2023-01-20T04:57:49.551Z,3.15
2023-01-20T05:00:19.951Z,3.14
2023-01-20T05:02:47.646Z,3.12
2023-01-20T05:05:14.791Z,3.11
2023-01-20T05:07:41.957Z,3.10
2023-01-20T05:10:09.739Z,3.09
2023-01-20T05:12:36.548Z,3.07
2023-01-20T05:15:03.553Z,3.08
2023-01-20T05:17:30.331Z,3.07
2023-01-20T05:19:57.126Z,3.10
2023-01-20T05:22:24.113Z,3.09
2023-01-20T05:24:50.927Z,3.09
2023-01-20T05:27:17.690Z,3.09
2023-01-20T05:29:44.478Z,3.10
2023-01-20T05:32:11.375Z,3.11
2023-01-20T05:34:38.141Z,3.13
2023-01-20T05:37:04.932Z,3.15
2023-01-20T05:39:31.721Z,3.19
2023-01-20T05:41:58.506Z,3.23
2023-01-20T05:44:25.313Z,3.27
2023-01-20T05:46:52.144Z,3.30
2023-01-20T05:49:18.937Z,3.32
2023-01-20T05:51:45.706Z,3.34
2023-01-20T05:54:12.509Z,3.35
2023-01-20T05:56:39.290Z,3.34
2023-01-20T05:59:07.712Z,3.34
2023-01-20T06:01:34.529Z,3.33
2023-01-20T06:04:01.400Z,3.33
2023-01-20T06:06:28.171Z,3.33
2023-01-20T06:08:54.969Z,3.33
2023-01-20T06:11:21.896Z,3.32
2023-01-20T06:13:49.323Z,3.29
2023-01-20T06:16:17.954Z,3.24
2023-01-20T06:18:44.946Z,3.17
2023-01-20T06:21:11.867Z,3.11
2023-01-20T06:23:38.655Z,3.03
2023-01-20T06:26:10.511Z,2.96
2023-01-20T06:28:37.375Z,2.91
2023-01-20T06:31:16.008Z,2.81
2023-01-20T06:33:43.567Z,2.77
2023-01-20T06:36:13.648Z,2.72
2023-01-20T06:38:40.747Z,2.67
2023-01-20T06:41:10.713Z,2.62
2023-01-20T06:43:41.774Z,2.61
2023-01-20T06:46:12.992Z,2.56
2023-01-20T06:48:41.307Z,2.55
2023-01-20T06:51:15.221Z,2.51
2023-01-20T06:53:42.561Z,2.49
2023-01-20T06:56:12.381Z,2.46
2023-01-20T06:58:39.953Z,2.43
2023-01-20T07:01:10.056Z,2.41
2023-01-20T07:03:37.194Z,2.39
2023-01-20T07:06:14.441Z,2.37
2023-01-20T07:08:43.797Z,2.38
2023-01-20T07:11:10.708Z,2.38
2023-01-20T07:13:37.470Z,2.38
2023-01-20T07:16:04.632Z,2.38
2023-01-20T07:18:31.411Z,2.37
2023-01-20T07:20:58.175Z,2.36
2023-01-20T07:23:25.103Z,2.33
2023-01-20T07:26:05.155Z,2.30
2023-01-20T07:28:33.156Z,2.30
2023-01-20T07:31:18.327Z,2.28
2023-01-20T07:33:45.439Z,2.27
2023-01-20T07:36:14.107Z,2.23
2023-01-20T07:38:41.176Z,2.21
2023-01-20T07:41:15.615Z,2.20
2023-01-20T07:43:51.658Z,2.17
2023-01-20T07:46:19.755Z,2.19
2023-01-20T07:48:46.562Z,2.18
2023-01-20T07:51:14.864Z,2.18
2023-01-20T07:53:46.607Z,2.16
2023-01-20T07:56:27.440Z,2.15
2023-01-20T07:58:55.799Z,2.16
2023-01-20T08:01:31.686Z,2.14
2023-01-20T08:04:00.542Z,2.15
2023-01-20T08:06:28.154Z,2.16
2023-01-20T08:08:58.630Z,2.16
2023-01-20T08:11:25.629Z,2.16
2023-01-20T08:13:52.897Z,2.17
2023-01-20T08:16:20.174Z,2.18
2023-01-20T08:18:47.569Z,2.20
2023-01-20T08:21:26.631Z,2.20
2023-01-20T08:23:56.095Z,2.23
2023-01-20T08:26:25.138Z,2.26
2023-01-20T08:28:52.691Z,2.29
2023-01-20T08:31:22.785Z,2.30
2023-01-20T08:33:55.078Z,2.33
2023-01-20T08:36:27.709Z,2.37
2023-01-20T08:38:57.437Z,2.40
2023-01-20T08:41:29.698Z,2.39
2023-01-20T08:43:59.838Z,2.46
2023-01-20T08:46:26.734Z,2.51
2023-01-20T08:48:54.872Z,2.55
2023-01-20T08:51:26.364Z,2.57
2023-01-20T08:53:53.255Z,2.61
2023-01-20T08:56:20.867Z,2.63
2023-01-20T08:58:47.911Z,2.66
2023-01-20T09:01:25.731Z,2.66
2023-01-20T09:04:04.994Z,2.70
2023-01-20T09:06:45.226Z,2.72
2023-01-20T09:09:14.417Z,2.77
2023-01-20T09:11:44.675Z,2.82
2023-01-20T09:14:11.655Z,2.86
2023-01-20T09:16:38.718Z,2.94
2023-01-20T09:19:05.638Z,3.03
2023-01-20T09:21:33.272Z,3.09
2023-01-20T09:24:00.222Z,3.20
2023-01-20T09:26:35.649Z,3.29
2023-01-20T09:29:08.968Z,3.42
2023-01-20T09:31:52.361Z,3.51
2023-01-20T09:34:24.592Z,3.64
2023-01-20T09:36:53.922Z,3.76
2023-01-20T09:39:39.927Z,3.88
2023-01-20T09:42:45.329Z,3.98
2023-01-20T09:45:27.580Z,4.11
2023-01-20T09:48:57.522Z,4.26
2023-01-20T09:51:56.372Z,4.38
2023-01-20T09:54:29.269Z,4.52
2023-01-20T09:57:00.287Z,4.63
2023-01-20T09:59:54.734Z,4.74
2023-01-20T10:02:28.131Z,4.90
2023-01-20T10:05:13.513Z,5.03
2023-01-20T10:07:55.504Z,5.18
2023-01-20T10:10:32.760Z,5.33
2023-01-20T10:13:19.488Z,5.45
2023-01-20T10:15:56.641Z,5.61
2023-01-20T10:18:37.669Z,5.76
2023-01-20T10:21:19.629Z,5.90
2023-01-20T10:24:00.746Z,6.05
2023-01-20T10:26:51.013Z,6.22
2023-01-20T10:29:37.268Z,6.38
2023-01-20T10:32:33.858Z,6.54
2023-01-20T10:35:18.931Z,6.71
2023-01-20T10:37:46.029Z,6.90
2023-01-20T10:40:37.025Z,7.04
2023-01-20T10:43:14.260Z,7.21
2023-01-20T10:46:10.368Z,7.39
2023-01-20T10:49:31.783Z,7.58
2023-01-20T10:52:17.291Z,7.79
2023-01-20T10:54:49.567Z,7.95
2023-01-20T10:57:16.543Z,8.15
2023-01-20T10:59:50.088Z,8.30
2023-01-20T11:02:25.890Z,8.49
2023-01-20T11:04:59.527Z,8.67
2023-01-20T11:07:29.054Z,8.87
2023-01-20T11:09:55.874Z,9.07
2023-01-20T11:12:28.239Z,9.26
2023-01-20T11:14:59.710Z,9.46
2023-01-20T11:17:26.610Z,9.65
2023-01-20T11:20:06.514Z,9.83
2023-01-20T11:22:34.694Z,9.99
2023-01-20T11:25:06.187Z,10.27
2023-01-20T11:27:51.868Z,10.46
2023-01-20T11:30:29.930Z,10.69
2023-01-20T11:33:19.971Z,10.84
2023-01-20T11:36:03.310Z,10.93
2023-01-20T11:38:45.656Z,10.97
2023-01-20T11:41:28.410Z,10.97
2023-01-20T11:44:00.472Z,10.97
2023-01-20T11:46:36.296Z,10.93
2023-01-20T11:49:22.704Z,10.88
2023-01-20T11:51:50.920Z,10.83
2023-01-20T11:54:22.936Z,10.72
2023-01-20T11:56:59.326Z,10.59
2023-01-20T11:59:34.837Z,10.51
2023-01-20T12:02:09.194Z,10.38
2023-01-20T12:05:08.930Z,10.32
2023-01-20T12:07:44.212Z,10.42
2023-01-20T12:10:23.448Z,10.54
2023-01-20T12:13:06.090Z,10.78
2023-01-20T12:15:37.507Z,10.92
2023-01-20T12:18:19.346Z,11.23
2023-01-20T12:21:24.435Z,11.74
2023-01-20T12:23:55.847Z,11.96
2023-01-20T12:26:24.194Z,12.05
2023-01-20T12:29:18.025Z,12.17
2023-01-20T12:31:48.881Z,12.13
2023-01-20T12:34:35.453Z,11.91
2023-01-20T12:37:20.765Z,11.77
2023-01-20T12:39:59.641Z,11.50
2023-01-20T12:43:19.536Z,11.20
2023-01-20T12:46:04.771Z,10.93
2023-01-20T12:48:49.448Z,10.68
2023-01-20T12:51:53.091Z,10.36
2023-01-20T12:54:54.689Z,10.09
2023-01-20T12:57:44.293Z,9.84
2023-01-20T13:01:15.873Z,9.55
2023-01-20T13:04:23.811Z,9.34
2023-01-20T13:07:25.428Z,9.13
2023-01-20T13:10:22.568Z,8.91
2023-01-20T13:13:29.344Z,8.70
2023-01-20T13:16:24.706Z,8.46
2023-01-20T13:19:28.427Z,8.21
2023-01-20T13:22:07.353Z,8.10
2023-01-20T13:24:35.428Z,7.92
2023-01-20T13:27:02.876Z,7.75
2023-01-20T13:29:35.733Z,7.62
2023-01-20T13:32:04.093Z,7.55
2023-01-20T13:34:35.669Z,7.45
2023-01-20T13:37:02.352Z,7.45
2023-01-20T13:39:40.505Z,7.41
2023-01-20T13:42:31.372Z,7.36
2023-01-20T13:45:17.552Z,7.37
2023-01-20T13:48:06.906Z,7.36
2023-01-20T13:50:37.254Z,7.40
2023-01-20T13:53:20.505Z,7.40
2023-01-20T13:55:48.032Z,7.44
2023-01-20T13:58:27.818Z,7.45
2023-01-20T14:00:56.907Z,7.42
2023-01-20T14:03:28.886Z,7.47
2023-01-20T14:06:13.805Z,7.40
2023-01-20T14:08:50.049Z,7.38
2023-01-20T14:11:18.546Z,7.37
2023-01-20T14:13:52.470Z,7.33
2023-01-20T14:16:37.933Z,7.28
2023-01-20T14:19:32.372Z,7.24
2023-01-20T14:22:04.543Z,7.25
2023-01-20T14:24:38.027Z,7.24
2023-01-20T14:27:19.023Z,7.18
2023-01-20T14:29:48.928Z,7.14
2023-01-20T14:32:32.454Z,7.06
2023-01-20T14:34:59.769Z,7.06
2023-01-20T14:37:38.278Z,7.02
2023-01-20T14:40:26.355Z,6.98
2023-01-20T14:43:06.653Z,6.97
2023-01-20T14:45:34.221Z,6.99
2023-01-20T14:48:02.624Z,6.98
2023-01-20T14:50:29.886Z,6.98
2023-01-20T14:52:56.964Z,6.98
2023-01-20T14:55:56.297Z,6.95
2023-01-20T14:58:24.692Z,7.00
2023-01-20T15:00:54.184Z,6.97
2023-01-20T15:03:25.760Z,6.98
2023-01-20T15:06:08.531Z,6.95
2023-01-20T15:08:35.204Z,6.98
2023-01-20T15:11:16.943Z,6.95
2023-01-20T15:14:09.428Z,6.94
2023-01-20T15:16:36.080Z,6.97
2023-01-20T15:19:15.174Z,6.95
2023-01-20T15:21:45.702Z,6.96
2023-01-20T15:24:22.068Z,6.96
2023-01-20T15:26:51.981Z,6.97
2023-01-20T15:29:23.492Z,6.95
2023-01-20T15:31:51.991Z,6.95
2023-01-20T15:34:19.844Z,6.94
2023-01-20T15:36:48.511Z,6.92
2023-01-20T15:39:21.050Z,6.89
2023-01-20T15:41:53.709Z,6.86
2023-01-20T15:44:21.632Z,6.83
2023-01-20T15:46:48.458Z,6.80
2023-01-20T15:49:16.323Z,6.75
2023-01-20T15:51:44.589Z,6.71
2023-01-20T15:54:13.607Z,6.68
2023-01-20T15:56:42.299Z,6.62
2023-01-20T15:59:20.944Z,6.55
2023-01-20T16:01:49.848Z,6.55
2023-01-20T16:04:17.009Z,6.50
2023-01-20T16:06:43.903Z,6.43
2023-01-20T16:09:30.871Z,6.32
2023-01-20T16:11:57.689Z,6.31
2023-01-20T16:14:24.463Z,6.25
2023-01-20T16:16:51.226Z,6.15
2023-01-20T16:19:17.992Z,6.07
2023-01-20T16:21:45.758Z,6.02
2023-01-20T16:24:13.043Z,5.97
2023-01-20T16:26:40.629Z,5.92
2023-01-20T16:29:09.282Z,5.85
2023-01-20T16:31:36.173Z,5.81
2023-01-20T16:34:04.273Z,5.76
2023-01-20T16:36:31.134Z,5.72
2023-01-20T16:38:57.950Z,5.67
2023-01-20T16:41:30.572Z,5.61
2023-01-20T16:43:58.411Z,5.59
2023-01-20T16:46:29.382Z,5.54
2023-01-20T16:49:02.096Z,5.50
2023-01-20T16:51:30.496Z,5.44
2023-01-20T16:53:58.434Z,5.41
2023-01-20T16:56:29.203Z,5.37
2023-01-20T16:59:01.452Z,5.34
2023-01-20T17:01:30.160Z,5.32
2023-01-20T17:04:00.012Z,5.30
2023-01-20T17:06:29.069Z,5.24
2023-01-20T17:08:57.935Z,5.27
2023-01-20T17:11:26.825Z,5.27
2023-01-20T17:13:55.032Z,5.26
2023-01-20T17:16:23.059Z,5.27
2023-01-20T17:18:52.246Z,5.27
2023-01-20T17:21:21.353Z,5.28
2023-01-20T17:23:53.860Z,5.28
2023-01-20T17:26:21.962Z,5.30
2023-01-20T17:28:49.149Z,5.30
2023-01-20T17:31:16.064Z,5.33
2023-01-20T17:33:46.561Z,5.33
2023-01-20T17:36:13.388Z,5.36
2023-01-20T17:38:40.239Z,5.37
2023-01-20T17:41:08.340Z,5.36
2023-01-20T17:43:38.526Z,5.36
2023-01-20T17:46:32.402Z,5.34
2023-01-20T17:49:06.316Z,5.37
2023-01-20T17:51:33.206Z,5.39
2023-01-20T17:54:03.409Z,5.39
2023-01-20T17:56:31.097Z,5.41
2023-01-20T17:58:57.890Z,5.40
2023-01-20T18:01:28.211Z,5.37
2023-01-20T18:03:56.707Z,5.35
2023-01-20T18:06:25.280Z,5.34
2023-01-20T18:08:55.063Z,5.33
2023-01-20T18:11:23.206Z,5.28
2023-01-20T18:13:55.212Z,5.31
2023-01-20T18:16:28.174Z,5.28
2023-01-20T18:18:58.670Z,5.27
2023-01-20T18:21:30.644Z,5.24
2023-01-20T18:24:00.241Z,5.25
2023-01-20T18:26:31.378Z,5.24
2023-01-20T18:29:01.276Z,5.24
2023-01-20T18:31:30.372Z,5.24
2023-01-20T18:34:00.371Z,5.24
2023-01-20T18:36:34.123Z,5.21
2023-01-20T18:39:13.289Z,5.19
2023-01-20T18:41:40.275Z,5.21
2023-01-20T18:44:07.585Z,5.21
2023-01-20T18:46:35.045Z,5.21
2023-01-20T18:49:02.023Z,5.23
2023-01-20T18:51:30.227Z,5.23
2023-01-20T18:54:00.858Z,5.23
2023-01-20T18:56:29.506Z,5.25
2023-01-20T18:58:57.099Z,5.25
2023-01-20T19:01:27.882Z,5.26
2023-01-20T19:03:55.494Z,5.27
2023-01-20T19:06:25.825Z,5.24
2023-01-20T19:08:53.114Z,5.24
2023-01-20T19:11:25.824Z,5.22
2023-01-20T19:13:53.478Z,5.21
2023-01-20T19:16:27.384Z,5.19
2023-01-20T19:19:00.738Z,5.17
2023-01-20T19:21:31.609Z,5.18
2023-01-20T19:24:01.594Z,5.18
2023-01-20T19:26:28.921Z,5.19
2023-01-20T19:29:02.522Z,5.18
2023-01-20T19:31:32.484Z,5.19
2023-01-20T19:33:59.643Z,5.20
2023-01-20T19:36:26.541Z,5.20
2023-01-20T19:38:53.374Z,5.20
2023-01-20T19:41:25.760Z,5.20
2023-01-20T19:43:57.811Z,5.22
2023-01-20T19:46:27.748Z,5.22
2023-01-20T19:48:57.119Z,5.22
2023-01-20T19:51:24.745Z,5.23
2023-01-20T19:53:57.884Z,5.22
2023-01-20T19:56:27.631Z,5.24
2023-01-20T19:58:55.095Z,5.19
2023-01-20T20:01:25.968Z,5.23
2023-01-20T20:03:56.373Z,5.22
2023-01-20T20:06:36.117Z,5.21
2023-01-20T20:09:07.971Z,5.18
2023-01-20T20:11:35.538Z,5.22
2023-01-20T20:14:04.328Z,5.20
2023-01-20T20:16:33.554Z,5.19
2023-01-20T20:19:00.370Z,5.20
2023-01-20T20:21:27.492Z,5.20
2023-01-20T20:23:59.721Z,5.18
2023-01-20T20:26:30.643Z,5.21
2023-01-20T20:29:00.427Z,5.24
2023-01-20T20:31:31.243Z,5.25
2023-01-20T20:33:59.835Z,5.28
2023-01-20T20:36:32.803Z,5.30
2023-01-20T20:39:01.237Z,5.29
2023-01-20T20:41:31.501Z,5.30
2023-01-20T20:44:01.465Z,5.29
2023-01-20T20:46:29.471Z,5.29
2023-01-20T20:48:59.351Z,5.27
2023-01-20T20:51:27.369Z,5.19
2023-01-20T20:53:58.622Z,5.19
2023-01-20T20:56:27.895Z,5.16
2023-01-20T20:59:02.042Z,5.13
2023-01-20T21:01:32.629Z,5.10
2023-01-20T21:04:00.394Z,5.09
2023-01-20T21:06:28.224Z,5.07
2023-01-20T21:08:55.041Z,5.04
2023-01-20T21:11:23.933Z,5.03
2023-01-20T21:13:51.057Z,5.02
2023-01-20T21:16:23.704Z,5.00
2023-01-20T21:18:53.491Z,5.01
2023-01-20T21:21:20.751Z,5.01
2023-01-20T21:23:57.372Z,4.98
2023-01-20T21:26:29.801Z,4.97
2023-01-20T21:29:00.133Z,4.95
2023-01-20T21:31:27.061Z,4.88
2023-01-20T21:34:00.231Z,4.89
2023-01-20T21:36:28.649Z,4.85
2023-01-20T21:38:55.448Z,4.83
2023-01-20T21:41:22.322Z,4.81
2023-01-20T21:44:08.725Z,4.78
2023-01-20T21:46:40.097Z,4.74
2023-01-20T21:49:27.178Z,4.70
2023-01-20T21:52:14.130Z,4.64
2023-01-20T21:54:41.278Z,4.59
2023-01-20T21:57:08.648Z,4.55
2023-01-20T21:59:35.604Z,4.52
2023-01-20T22:02:02.500Z,4.46
2023-01-20T22:04:29.415Z,4.43
2023-01-20T22:06:56.242Z,4.38
2023-01-20T22:09:23.185Z,4.33
2023-01-20T22:11:50.258Z,4.27
2023-01-20T22:14:17.100Z,4.20
2023-01-20T22:16:44.066Z,4.15
2023-01-20T22:19:14.743Z,4.08
2023-01-20T22:21:41.577Z,4.05
2023-01-20T22:24:09.356Z,3.99
2023-01-20T22:26:36.141Z,3.97
2023-01-20T22:29:03.303Z,3.93
2023-01-20T22:31:31.893Z,3.90
2023-01-20T22:34:04.204Z,3.85
2023-01-20T22:36:31.566Z,3.83
2023-01-20T22:38:58.564Z,3.80
2023-01-20T22:41:25.560Z,3.77
2023-01-20T22:43:52.623Z,3.73
2023-01-20T22:46:21.946Z,3.70
2023-01-20T22:48:48.928Z,3.67
2023-01-20T22:51:19.679Z,3.64
2023-01-20T22:53:47.143Z,3.62
2023-01-20T22:56:17.792Z,3.60
2023-01-20T22:58:45.621Z,3.58
2023-01-20T23:01:18.339Z,3.53
2023-01-20T23:03:45.833Z,3.52
2023-01-20T23:06:14.077Z,3.49
2023-01-20T23:08:41.721Z,3.47
2023-01-20T23:11:13.454Z,3.46
2023-01-20T23:13:40.957Z,3.43
2023-01-20T23:16:10.905Z,3.44
2023-01-20T23:18:37.692Z,3.46
2023-01-20T23:21:07.624Z,3.46
2023-01-20T23:23:35.390Z,3.48
2023-01-20T23:26:17.586Z,3.47
2023-01-20T23:28:46.126Z,3.51
2023-01-20T23:31:15.565Z,3.51
2023-01-20T23:33:44.237Z,3.53
2023-01-20T23:36:21.266Z,3.56
2023-01-20T23:38:48.234Z,3.60
2023-01-20T23:41:16.104Z,3.62
2023-01-20T23:43:43.040Z,3.65
2023-01-20T23:46:10.520Z,3.69
2023-01-20T23:48:38.215Z,3.72
2023-01-20T23:51:06.322Z,3.75
2023-01-20T23:53:37.839Z,3.76
2023-01-20T23:56:14.671Z,3.75
2023-01-20T23:58:41.946Z,3.78
